Time;durP1;ratioP1;P1;durP2;ratioP2;P2;SDS_P1;SDS_P2;PMS_P1;PMS_P2;Temp;Humidity;BMP_temperature;BMP_pressure;BME280_temperature;BME280_humidity;BME280_pressure;Samples;Min_cycle;Max_cycle;Signal;HPM_P1;HPM_P2
2022/07/01 00:00:01;;;;;;;11.60;6.50;;;16.00;1.00;;;;;;5035092;28;20200;-83
2022/07/01 00:02:26;;;;;;;8.30;6.20;;;16.00;1.00;;;;;;5029585;28;20256;-83
2022/07/01 00:04:53;;;;;;;7.07;5.23;;;16.00;1.00;;;;;;5031843;28;20217;-83
2022/07/01 00:07:18;;;;;;;6.60;5.53;;;15.90;1.00;;;;;;5030207;28;20192;-83
2022/07/01 00:09:44;;;;;;;9.57;5.83;;;15.90;1.00;;;;;;5027709;28;20444;-83
2022/07/01 00:12:10;;;;;;;8.20;5.70;;;15.90;1.00;;;;;;5025881;28;20192;-84
2022/07/01 00:14:35;;;;;;;11.00;5.80;;;16.00;1.00;;;;;;5028716;28;20231;-83
2022/07/01 00:17:01;;;;;;;8.10;5.30;;;16.00;1.00;;;;;;5043385;28;20185;-84
2022/07/01 00:19:27;;;;;;;8.70;5.80;;;16.00;1.00;;;;;;5029435;28;20201;-85
2022/07/01 00:21:53;;;;;;;9.70;6.20;;;16.00;1.00;;;;;;5024669;28;20474;-84
2022/07/01 00:24:19;;;;;;;8.80;6.30;;;16.00;1.00;;;;;;5029611;28;20203;-81
2022/07/01 00:26:44;;;;;;;9.33;5.97;;;16.00;1.00;;;;;;5028305;28;20486;-83
2022/07/01 00:29:10;;;;;;;11.40;7.60;;;16.00;1.00;;;;;;5027376;28;20327;-84
2022/07/01 00:31:35;;;;;;;9.60;6.30;;;16.00;1.00;;;;;;5029061;28;20622;-84
2022/07/01 00:34:02;;;;;;;12.50;7.23;;;15.90;1.00;;;;;;5029886;28;20225;-84
2022/07/01 00:36:28;;;;;;;11.50;7.47;;;15.90;1.00;;;;;;5027730;28;20197;-84
2022/07/01 00:38:53;;;;;;;10.03;7.40;;;15.90;1.00;;;;;;5028797;28;20437;-84
2022/07/01 00:41:19;;;;;;;16.13;7.23;;;15.90;1.00;;;;;;5030546;28;20183;-85
2022/07/01 00:43:44;;;;;;;14.40;9.53;;;15.90;1.00;;;;;;5027371;28;20277;-83
2022/07/01 00:46:10;;;;;;;12.70;8.40;;;15.80;1.00;;;;;;5026712;28;20187;-83
2022/07/01 00:48:36;;;;;;;12.13;7.80;;;15.80;1.00;;;;;;5024817;28;20192;-84
2022/07/01 00:51:02;;;;;;;14.43;8.80;;;15.80;1.00;;;;;;5026123;28;20202;-83
2022/07/01 00:53:29;;;;;;;14.00;8.53;;;15.80;1.00;;;;;;5033014;28;20459;-84
2022/07/01 00:55:55;;;;;;;11.37;7.77;;;15.70;1.00;;;;;;5033173;28;20489;-84
2022/07/01 00:58:21;;;;;;;13.53;9.10;;;15.70;1.00;;;;;;5034724;28;20427;-85
2022/07/01 01:00:46;;;;;;;16.30;10.00;;;15.70;1.00;;;;;;5031525;28;20957;-84
2022/07/01 01:03:12;;;;;;;15.13;9.40;;;15.70;1.00;;;;;;5038254;28;20212;-85
2022/07/01 01:05:38;;;;;;;14.57;9.30;;;15.60;1.00;;;;;;5031992;28;20214;-83
2022/07/01 01:08:07;;;;;;;13.27;10.07;;;15.60;1.00;;;;;;5036572;28;20191;-84
2022/07/01 01:10:35;;;;;;;16.80;9.80;;;15.60;1.00;;;;;;5035029;28;20426;-84
2022/07/01 01:13:00;;;;;;;15.63;9.93;;;15.60;1.00;;;;;;5035554;28;20457;-84
2022/07/01 01:15:27;;;;;;;13.90;9.67;;;15.60;1.00;;;;;;5033916;28;20488;-83
2022/07/01 01:17:53;;;;;;;19.13;10.30;;;15.60;1.00;;;;;;5037561;28;20204;-86
2022/07/01 01:20:19;;;;;;;13.97;9.40;;;15.60;1.00;;;;;;5037190;28;20440;-83
2022/07/01 01:22:49;;;;;;;15.80;10.73;;;15.60;1.00;;;;;;5037467;28;20232;-85
2022/07/01 01:25:15;;;;;;;13.93;9.97;;;15.60;1.00;;;;;;5036257;28;20461;-84
2022/07/01 01:27:41;;;;;;;17.37;9.43;;;15.50;1.00;;;;;;5037435;28;20470;-83
2022/07/01 01:30:09;;;;;;;15.50;9.83;;;15.50;1.00;;;;;;5036110;28;20448;-85
2022/07/01 01:32:35;;;;;;;21.33;12.27;;;15.50;1.00;;;;;;5035494;28;20584;-85
2022/07/01 01:35:02;;;;;;;16.60;10.07;;;15.50;1.00;;;;;;5036315;28;20461;-83
2022/07/01 01:37:28;;;;;;;17.30;10.07;;;15.40;1.00;;;;;;5034939;28;20426;-84
2022/07/01 01:39:54;;;;;;;15.57;9.63;;;15.40;1.00;;;;;;5034895;28;20538;-83
2022/07/01 01:42:20;;;;;;;22.73;11.20;;;15.30;1.00;;;;;;5034977;28;20267;-84
2022/07/01 01:44:45;;;;;;;16.80;9.90;;;15.30;1.00;;;;;;5035132;28;20473;-83
2022/07/01 01:47:11;;;;;;;16.00;10.20;;;15.30;1.00;;;;;;5036632;28;20442;-85
2022/07/01 01:49:37;;;;;;;14.37;9.73;;;15.30;1.00;;;;;;5036327;28;20187;-85
2022/07/01 01:52:03;;;;;;;23.27;10.77;;;15.30;1.00;;;;;;5040487;28;20190;-84
2022/07/01 01:54:28;;;;;;;13.37;9.00;;;15.30;1.00;;;;;;5039167;28;20226;-86
2022/07/01 01:56:54;;;;;;;14.63;9.33;;;15.30;1.00;;;;;;5035817;28;20445;-85
2022/07/01 01:59:19;;;;;;;11.40;8.47;;;15.30;1.00;;;;;;5039498;28;20188;-84
2022/07/01 02:01:45;;;;;;;14.60;8.00;;;15.30;1.00;;;;;;5037081;28;20633;-85
2022/07/01 02:04:10;;;;;;;14.17;6.77;;;15.30;1.00;;;;;;5037699;28;20216;-85
2022/07/01 02:06:36;;;;;;;13.43;7.80;;;15.30;1.00;;;;;;5039160;28;20195;-85
2022/07/01 02:09:03;;;;;;;12.43;8.23;;;15.20;1.00;;;;;;5040436;28;20209;-84
2022/07/01 02:11:28;;;;;;;10.87;8.30;;;15.20;1.00;;;;;;5041591;28;20192;-85
2022/07/01 02:13:54;;;;;;;10.53;6.50;;;15.20;1.00;;;;;;5039490;28;20506;-85
2022/07/01 02:16:19;;;;;;;8.50;5.97;;;15.20;1.00;;;;;;5036518;28;20490;-85
2022/07/01 02:18:45;;;;;;;8.80;6.00;;;15.20;1.00;;;;;;5042686;28;20191;-86
2022/07/01 02:21:10;;;;;;;8.67;5.40;;;15.20;1.00;;;;;;5036009;28;20856;-83
2022/07/01 02:23:36;;;;;;;6.13;5.37;;;15.20;1.00;;;;;;5032721;28;21433;-84
2022/07/01 02:26:02;;;;;;;8.90;5.07;;;15.20;1.00;;;;;;5033148;28;20183;-84
2022/07/01 02:28:27;;;;;;;9.10;5.13;;;15.20;1.00;;;;;;5041247;28;20517;-85
2022/07/01 02:30:53;;;;;;;10.83;5.93;;;15.10;1.00;;;;;;5037313;28;20650;-84
2022/07/01 02:33:19;;;;;;;7.00;4.60;;;15.10;1.00;;;;;;5040532;28;20235;-84
2022/07/01 02:35:44;;;;;;;7.53;5.33;;;15.10;1.00;;;;;;5035334;28;20220;-86
2022/07/01 02:38:10;;;;;;;8.13;5.00;;;15.10;1.00;;;;;;5039974;28;20179;-84
2022/07/01 02:40:39;;;;;;;6.87;5.00;;;15.10;1.00;;;;;;5037084;28;20184;-84
2022/07/01 02:43:06;;;;;;;6.27;4.80;;;15.00;1.00;;;;;;5038821;28;20698;-85
2022/07/01 02:45:31;;;;;;;5.93;4.50;;;15.00;1.00;;;;;;5034677;28;20504;-85
2022/07/01 02:47:57;;;;;;;8.70;4.97;;;15.00;1.00;;;;;;5037175;28;20485;-85
2022/07/01 02:50:23;;;;;;;10.80;4.73;;;15.00;1.00;;;;;;5035442;28;20246;-83
2022/07/01 02:52:48;;;;;;;8.80;5.50;;;15.00;1.00;;;;;;5036877;28;20211;-84
2022/07/01 02:55:14;;;;;;;8.57;6.20;;;15.00;1.00;;;;;;5034076;28;20263;-84
2022/07/01 02:57:42;;;;;;;11.90;6.53;;;15.00;1.00;;;;;;5035146;28;20211;-85
2022/07/01 03:00:11;;;;;;;12.63;6.53;;;15.00;1.00;;;;;;5035537;28;20429;-83
2022/07/01 03:02:37;;;;;;;10.60;7.10;;;14.90;1.00;;;;;;5032094;28;20486;-85
2022/07/01 03:05:03;;;;;;;11.40;7.10;;;14.90;1.00;;;;;;5033814;28;20456;-84
2022/07/01 03:07:29;;;;;;;12.50;7.23;;;14.90;1.00;;;;;;5031096;28;20190;-84
2022/07/01 03:09:55;;;;;;;10.47;7.80;;;14.90;1.00;;;;;;5031689;28;20953;-84
2022/07/01 03:12:29;;;;;;;12.37;7.87;;;14.90;1.00;;;;;;5031744;28;20178;-83
2022/07/01 03:14:57;;;;;;;11.80;8.00;;;14.90;1.00;;;;;;5029068;28;20205;-84
2022/07/01 03:17:28;;;;;;;16.73;9.77;;;14.90;1.00;;;;;;5031749;28;20449;-83
2022/07/01 03:19:55;;;;;;;16.53;8.23;;;14.90;1.00;;;;;;5031562;28;20436;-84
2022/07/01 03:22:22;;;;;;;14.70;9.70;;;14.90;1.00;;;;;;5030817;28;20437;-82
2022/07/01 03:24:49;;;;;;;13.13;8.10;;;14.90;1.00;;;;;;5030029;28;20463;-84
2022/07/01 03:27:15;;;;;;;11.23;8.00;;;15.00;1.00;;;;;;5029860;28;20442;-84
2022/07/01 03:29:41;;;;;;;12.10;7.47;;;15.00;1.00;;;;;;5032202;28;20500;-84
2022/07/01 03:32:09;;;;;;;11.80;7.60;;;15.00;1.00;;;;;;5034261;28;20492;-84
2022/07/01 03:34:39;;;;;;;12.30;7.10;;;15.10;1.00;;;;;;5032962;28;20465;-85
2022/07/01 03:37:05;;;;;;;9.80;6.40;;;15.10;1.00;;;;;;5033693;28;20437;-84
2022/07/01 03:39:31;;;;;;;10.20;6.60;;;15.10;1.00;;;;;;5032105;28;20430;-85
2022/07/01 03:41:56;;;;;;;7.93;5.80;;;15.20;1.00;;;;;;5032768;28;20446;-84
2022/07/01 03:44:22;;;;;;;12.10;6.00;;;15.20;1.00;;;;;;5045247;23;20314;-82
2022/07/01 03:46:47;;;;;;;9.43;6.40;;;15.20;1.00;;;;;;5014077;28;20273;-83
2022/07/01 03:49:13;;;;;;;9.40;6.07;;;15.20;1.00;;;;;;5015555;28;20608;-83
2022/07/01 03:51:38;;;;;;;9.00;5.20;;;15.20;1.00;;;;;;5013753;28;20203;-84
2022/07/01 03:56:48;;;;;;;13.27;5.07;;;15.30;1.00;;;;;;5010363;28;20194;-84
2022/07/01 03:59:13;;;;;;;8.00;5.17;;;15.30;1.00;;;;;;5014349;28;20428;-83
2022/07/01 04:01:39;;;;;;;7.63;5.50;;;15.30;1.00;;;;;;5014715;28;20200;-84
2022/07/01 04:04:05;;;;;;;7.60;6.13;;;15.40;1.00;;;;;;5011231;28;20205;-83
2022/07/01 04:06:30;;;;;;;7.57;5.23;;;15.40;1.00;;;;;;5014495;28;20329;-83
2022/07/01 04:08:56;;;;;;;7.17;4.60;;;15.40;1.00;;;;;;5012486;28;20216;-83
2022/07/01 04:11:23;;;;;;;15.60;5.70;;;15.50;1.00;;;;;;5012801;28;20192;-83
2022/07/01 04:13:52;;;;;;;9.13;4.50;;;15.50;1.00;;;;;;5011932;28;20475;-83
2022/07/01 04:16:18;;;;;;;5.33;4.77;;;15.50;1.00;;;;;;5014676;28;20447;-83
2022/07/01 04:18:44;;;;;;;10.27;4.90;;;15.50;1.00;;;;;;5012223;28;20451;-84
2022/07/01 04:23:56;;;;;;;5.37;4.87;;;15.60;1.00;;;;;;5014348;28;20474;-83
2022/07/01 04:26:22;;;;;;;7.40;5.57;;;15.60;1.00;;;;;;5013676;28;20540;-83
2022/07/01 04:28:48;;;;;;;10.57;5.33;;;15.60;1.00;;;;;;5011686;28;20454;-85
2022/07/01 04:31:14;;;;;;;5.43;4.87;;;15.60;1.00;;;;;;5013271;28;20440;-84
2022/07/01 04:33:39;;;;;;;5.43;4.40;;;15.60;1.00;;;;;;5014312;28;20216;-84
2022/07/01 04:36:05;;;;;;;5.87;4.40;;;15.70;1.00;;;;;;5014178;28;20219;-84
2022/07/01 04:38:31;;;;;;;7.83;5.17;;;15.70;1.00;;;;;;5013131;28;20188;-84
2022/07/01 04:43:41;;;;;;;5.00;4.43;;;15.70;1.00;;;;;;5012656;28;21094;-83
2022/07/01 04:46:06;;;;;;;11.00;6.07;;;15.70;1.00;;;;;;5013983;28;20500;-83
2022/07/01 04:48:33;;;;;;;6.80;6.10;;;15.80;1.00;;;;;;5011786;28;20213;-82
2022/07/01 04:50:58;;;;;;;10.93;6.70;;;15.80;1.00;;;;;;5015874;28;20191;-83
2022/07/01 04:53:24;;;;;;;8.93;6.83;;;15.80;1.00;;;;;;5016152;28;20460;-83
2022/07/01 04:55:49;;;;;;;9.80;6.87;;;15.80;1.00;;;;;;5016519;28;20715;-82
2022/07/01 04:58:15;;;;;;;14.83;7.50;;;15.80;1.00;;;;;;5016595;28;20216;-83
2022/07/01 05:00:40;;;;;;;7.73;6.93;;;15.90;99.90;;;;;;5015883;28;20281;-83
2022/07/01 05:03:06;;;;;;;9.50;6.43;;;15.90;99.90;;;;;;5017874;28;20213;-83
2022/07/01 05:05:32;;;;;;;8.23;6.53;;;15.90;99.90;;;;;;5018429;28;20291;-83
2022/07/01 05:07:57;;;;;;;9.13;6.57;;;15.90;99.90;;;;;;5014331;28;20194;-83
2022/07/01 05:10:23;;;;;;;8.20;6.70;;;16.00;99.90;;;;;;5017605;28;20688;-83
2022/07/01 05:12:49;;;;;;;10.20;5.53;;;16.10;99.90;;;;;;5015273;28;20221;-84
2022/07/01 05:15:14;;;;;;;9.27;6.23;;;16.10;99.90;;;;;;5016360;28;20470;-83
2022/07/01 05:23:11;;;;;;;10.43;4.50;;;16.20;99.90;;;;;;5016719;28;20998;-83
2022/07/01 05:25:37;;;;;;;8.23;4.03;;;16.30;99.90;;;;;;5014195;28;20444;-83
2022/07/01 05:28:02;;;;;;;7.70;4.30;;;16.30;99.90;;;;;;5014998;28;20213;-84
2022/07/01 05:30:28;;;;;;;5.03;3.93;;;16.30;99.90;;;;;;5014369;28;20193;-84
2022/07/01 05:32:53;;;;;;;7.30;4.10;;;16.40;99.90;;;;;;5014992;28;20189;-84
2022/07/01 05:35:19;;;;;;;5.40;3.37;;;16.40;99.90;;;;;;5016103;28;20209;-84
2022/07/01 05:37:44;;;;;;;6.40;3.90;;;16.40;99.90;;;;;;5012118;28;20661;-83
2022/07/01 05:40:10;;;;;;;4.57;3.67;;;16.40;94.80;;;;;;5013977;28;20196;-83
2022/07/01 05:42:37;;;;;;;7.10;3.83;;;16.50;78.20;;;;;;5006174;28;20190;-83
2022/07/01 05:45:03;;;;;;;8.47;3.30;;;16.50;20.50;;;;;;5015493;28;20538;-83
2022/07/01 05:47:28;;;;;;;8.63;4.10;;;16.60;1.00;;;;;;5017190;28;20428;-83
2022/07/01 05:49:54;;;;;;;6.80;4.00;;;16.60;1.00;;;;;;5017871;28;20195;-84
2022/07/01 05:52:19;;;;;;;5.10;4.20;;;16.60;1.00;;;;;;5012875;28;20193;-83
2022/07/01 05:54:45;;;;;;;6.83;4.60;;;16.70;1.00;;;;;;5014101;28;20717;-83
2022/07/01 05:57:10;;;;;;;6.87;5.00;;;16.80;1.00;;;;;;5017151;28;20558;-83
2022/07/01 05:59:36;;;;;;;9.57;5.10;;;16.90;1.00;;;;;;5008471;28;20199;-84
2022/07/01 06:02:02;;;;;;;8.27;4.57;;;17.10;99.90;;;;;;5010953;28;20211;-83
2022/07/01 06:04:28;;;;;;;9.90;4.77;;;17.40;99.90;;;;;;5015867;28;20221;-83
2022/07/01 06:06:53;;;;;;;6.30;4.40;;;17.60;99.90;;;;;;5014889;28;20201;-83
2022/07/01 06:09:19;;;;;;;7.50;4.23;;;17.80;1.00;;;;;;5013313;28;20652;-83
2022/07/01 06:11:45;;;;;;;11.43;5.10;;;17.90;1.00;;;;;;5005030;28;20199;-83
2022/07/01 06:14:11;;;;;;;9.73;5.47;;;18.00;99.90;;;;;;5010761;28;20301;-84
2022/07/01 06:16:37;;;;;;;8.90;4.90;;;18.00;22.10;;;;;;5010834;28;20466;-84
2022/07/01 06:19:04;;;;;;;5.57;4.77;;;18.00;99.90;;;;;;5016005;28;20183;-84
2022/07/01 06:21:30;;;;;;;6.23;5.57;;;18.10;1.00;;;;;;5013440;28;20455;-82
2022/07/01 06:23:55;;;;;;;10.70;5.20;;;18.00;99.90;;;;;;5012442;28;20464;-83
2022/07/01 06:26:21;;;;;;;7.43;5.80;;;17.90;1.00;;;;;;5013698;28;20529;-84
2022/07/01 06:28:46;;;;;;;8.93;6.00;;;17.80;1.00;;;;;;5016919;28;20462;-84
2022/07/01 06:31:12;;;;;;;8.23;5.97;;;17.70;1.00;;;;;;5015601;28;20188;-84
2022/07/01 06:33:38;;;;;;;7.40;6.57;;;17.70;99.90;;;;;;5014267;28;20295;-84
2022/07/01 06:36:03;;;;;;;6.70;6.00;;;17.80;1.00;;;;;;5007574;28;20211;-85
2022/07/01 06:38:29;;;;;;;6.90;5.70;;;17.90;91.40;;;;;;5017132;28;20262;-84
2022/07/01 06:43:39;;;;;;;7.63;5.93;;;17.80;1.00;;;;;;5018001;28;20476;-84
2022/07/01 06:46:05;;;;;;;9.23;6.30;;;17.80;99.90;;;;;;5016457;28;20426;-83
2022/07/01 06:48:30;;;;;;;13.53;6.93;;;17.80;99.90;;;;;;5015420;28;20242;-84
2022/07/01 06:50:56;;;;;;;9.43;5.70;;;17.80;99.90;;;;;;5014577;28;20451;-84
2022/07/01 06:53:22;;;;;;;7.13;5.00;;;17.90;99.90;;;;;;5014867;28;20213;-84
2022/07/01 06:55:47;;;;;;;6.20;5.60;;;18.00;99.90;;;;;;5015607;28;20462;-84
2022/07/01 06:58:13;;;;;;;8.40;5.97;;;18.30;1.00;;;;;;5016860;28;20340;-84
2022/07/01 07:00:39;;;;;;;8.70;5.50;;;18.60;99.90;;;;;;5013638;28;20216;-84
2022/07/01 07:03:04;;;;;;;7.77;5.30;;;19.00;1.00;;;;;;5017833;28;20216;-84
2022/07/01 07:05:30;;;;;;;7.90;5.30;;;19.40;99.90;;;;;;5015342;28;20192;-84
2022/07/01 07:07:57;;;;;;;5.10;4.53;;;19.70;1.00;;;;;;5018060;28;20197;-83
2022/07/01 07:10:22;;;;;;;8.40;4.10;;;19.70;1.00;;;;;;5018271;28;20819;-84
2022/07/01 07:12:48;;;;;;;8.83;4.40;;;19.70;1.00;;;;;;5011185;28;20526;-84
2022/07/01 07:15:14;;;;;;;7.00;4.50;;;19.80;99.90;;;;;;5015896;28;20219;-84
2022/07/01 07:17:40;;;;;;;8.50;4.37;;;19.70;99.90;;;;;;5015684;28;20219;-85
2022/07/01 07:20:06;;;;;;;7.97;4.40;;;19.50;99.90;;;;;;5009161;28;20519;-84
2022/07/01 07:22:31;;;;;;;6.93;3.77;;;19.50;99.90;;;;;;5015073;28;20254;-84
2022/07/01 07:24:57;;;;;;;3.93;2.90;;;20.20;99.90;;;;;;5016537;28;20446;-84
2022/07/01 07:27:22;;;;;;;6.90;3.07;;;22.50;1.00;;;;;;5011515;28;20608;-84
2022/07/01 07:29:48;;;;;;;8.13;3.10;;;25.10;99.90;;;;;;5015212;28;20191;-84
2022/07/01 07:32:14;;;;;;;7.60;3.07;;;27.00;99.90;;;;;;5009581;28;20175;-85
2022/07/01 07:34:39;;;;;;;6.07;3.20;;;27.10;99.90;;;;;;5011304;28;20211;-84
2022/07/01 07:37:05;;;;;;;6.10;2.70;;;26.50;99.90;;;;;;5009326;28;20187;-85
2022/07/01 07:39:31;;;;;;;6.40;2.60;;;25.80;99.90;;;;;;5011237;28;20190;-85
2022/07/01 07:41:57;;;;;;;6.83;2.50;;;24.90;99.90;;;;;;5011645;28;20473;-86
2022/07/01 07:44:23;;;;;;;6.20;2.77;;;25.30;99.90;;;;;;5009244;28;20882;-85
2022/07/01 07:46:49;;;;;;;7.17;3.20;;;26.30;99.90;;;;;;5011204;28;20444;-85
2022/07/01 07:49:15;;;;;;;6.60;3.30;;;25.60;99.90;;;;;;5012328;28;20905;-85
2022/07/01 07:51:40;;;;;;;4.23;2.20;;;25.10;99.90;;;;;;5010456;28;20517;-85
2022/07/01 07:54:06;;;;;;;6.43;2.23;;;28.00;99.90;;;;;;5012905;28;20218;-84
2022/07/01 07:56:32;;;;;;;4.40;2.10;;;33.10;99.90;;;;;;5011775;28;20216;-83
2022/07/01 07:58:57;;;;;;;6.83;2.13;;;32.70;99.90;;;;;;5008410;28;20721;-84
2022/07/01 08:01:23;;;;;;;4.50;2.40;;;36.20;99.90;;;;;;5006350;28;20289;-83
2022/07/01 08:03:49;;;;;;;2.97;1.90;;;35.20;99.90;;;;;;5008731;28;20297;-83
2022/07/01 08:06:14;;;;;;;5.23;2.73;;;32.80;99.90;;;;;;5008186;28;20182;-83
2022/07/01 08:08:40;;;;;;;7.30;2.40;;;30.60;99.90;;;;;;5023728;28;20179;-85
2022/07/01 08:11:05;;;;;;;5.33;2.20;;;28.80;99.90;;;;;;5008739;28;20567;-85
2022/07/01 08:13:31;;;;;;;3.80;2.40;;;27.40;99.90;;;;;;5010508;28;20215;-85
2022/07/01 08:15:57;;;;;;;5.43;3.07;;;26.20;99.90;;;;;;5008428;28;20208;-83
2022/07/01 08:18:23;;;;;;;3.80;2.10;;;28.10;99.90;;;;;;5011630;28;20186;-83
2022/07/01 08:20:52;;;;;;;5.07;2.50;;;28.70;99.90;;;;;;5012143;28;20441;-83
2022/07/01 08:23:18;;;;;;;8.40;2.80;;;27.10;99.90;;;;;;5011563;28;20579;-83
2022/07/01 08:25:44;;;;;;;2.30;2.10;;;28.40;99.90;;;;;;5010171;28;20419;-84
2022/07/01 08:28:09;;;;;;;3.27;1.60;;;33.50;99.90;;;;;;5016306;28;21025;-84
2022/07/01 08:30:35;;;;;;;5.43;1.50;;;38.50;99.90;;;;;;5012662;28;20186;-82
2022/07/01 08:33:01;;;;;;;3.33;1.60;;;40.90;99.90;;;;;;5016969;28;20211;-84
2022/07/01 08:35:26;;;;;;;3.80;1.70;;;42.80;99.90;;;;;;5025545;28;20201;-84
2022/07/01 08:37:52;;;;;;;3.47;1.73;;;40.50;99.90;;;;;;5012749;28;20183;-85
2022/07/01 08:40:24;;;;;;;3.60;1.67;;;36.90;99.90;;;;;;5029851;28;20189;-84
2022/07/01 08:42:50;;;;;;;5.70;1.87;;;34.90;99.90;;;;;;5015073;28;20252;-85
2022/07/01 08:45:16;;;;;;;3.60;1.77;;;32.90;99.90;;;;;;5012251;28;20449;-84
2022/07/01 08:47:54;;;;;;;2.77;1.90;;;31.70;99.90;;;;;;5014409;28;20182;-85
2022/07/01 08:50:20;;;;;;;10.10;2.40;;;30.80;99.90;;;;;;5003103;28;20182;-84
2022/07/01 08:52:45;;;;;;;3.80;1.83;;;31.10;99.90;;;;;;5009121;28;20831;-84
2022/07/01 08:55:11;;;;;;;3.93;1.50;;;31.10;99.90;;;;;;5014711;28;20194;-85
2022/07/01 08:57:37;;;;;;;4.70;1.97;;;31.30;99.90;;;;;;5013277;28;20187;-86
2022/07/01 09:00:05;;;;;;;3.13;1.50;;;33.20;99.90;;;;;;5015287;28;20205;-85
2022/07/01 09:02:56;;;;;;;2.87;1.90;;;35.40;99.90;;;;;;5013304;28;20198;-86
2022/07/01 09:05:22;;;;;;;3.57;1.23;;;37.30;99.90;;;;;;5007298;28;20461;-85
2022/07/01 09:07:54;;;;;;;2.97;1.40;;;39.00;99.90;;;;;;5015698;28;20508;-85
2022/07/01 09:10:20;;;;;;;2.53;1.27;;;40.20;99.90;;;;;;5001505;28;20434;-86
2022/07/01 09:12:46;;;;;;;6.87;1.40;;;40.60;99.90;;;;;;5012350;28;20445;-86
2022/07/01 09:15:25;;;;;;;3.57;1.30;;;39.30;99.90;;;;;;5014601;28;20182;-85
2022/07/01 09:18:03;;;;;;;2.37;1.43;;;37.70;96.80;;;;;;5014099;28;20527;-85
2022/07/01 09:20:38;;;;;;;3.10;1.20;;;38.40;97.50;;;;;;5012376;28;20826;-85
2022/07/01 09:23:12;;;;;;;2.30;1.03;;;37.10;92.10;;;;;;5005536;28;20406;-85
2022/07/01 09:25:44;;;;;;;2.80;0.90;;;36.40;90.20;;;;;;5006393;28;20513;-85
2022/07/01 09:28:21;;;;;;;1.80;0.70;;;35.40;85.60;;;;;;5009788;28;20469;-85
2022/07/01 09:30:49;;;;;;;3.30;1.10;;;35.70;86.40;;;;;;5008977;28;20575;-85
2022/07/01 09:33:19;;;;;;;3.70;1.03;;;34.80;80.50;;;;;;5011790;28;20512;-87
2022/07/01 09:35:46;;;;;;;2.03;1.00;;;34.10;77.30;;;;;;5006218;28;20434;-85
2022/07/01 09:38:14;;;;;;;3.20;0.90;;;35.30;83.50;;;;;;5012755;28;20784;-85
2022/07/01 09:41:02;;;;;;;1.60;0.80;;;36.60;85.20;;;;;;5006451;28;20492;-85
2022/07/01 09:43:29;;;;;;;2.10;1.10;;;36.90;83.30;;;;;;5010365;28;20477;-85
2022/07/01 09:46:11;;;;;;;2.33;1.20;;;35.70;77.30;;;;;;5011832;28;20996;-84
2022/07/01 09:48:36;;;;;;;3.30;1.17;;;34.00;67.20;;;;;;5011520;28;20438;-85
2022/07/01 09:51:04;;;;;;;3.20;1.00;;;32.20;62.80;;;;;;5014695;28;20448;-86
2022/07/01 09:53:31;;;;;;;2.27;1.07;;;30.80;57.90;;;;;;5009321;28;20203;-86
2022/07/01 09:55:56;;;;;;;3.57;0.93;;;30.70;58.90;;;;;;5010889;28;20437;-85
2022/07/01 09:58:22;;;;;;;2.70;1.10;;;33.80;76.30;;;;;;5013643;28;21012;-86
2022/07/01 10:00:48;;;;;;;7.33;1.20;;;36.40;84.60;;;;;;5012847;28;20191;-85
2022/07/01 10:03:14;;;;;;;5.23;1.00;;;38.00;86.40;;;;;;5012351;28;20219;-85
2022/07/01 10:05:47;;;;;;;2.30;0.93;;;38.20;94.80;;;;;;5013801;28;20508;-85
2022/07/01 10:08:47;;;;;;;2.97;1.20;;;36.60;72.10;;;;;;5004328;28;20553;-85
2022/07/01 10:11:42;;;;;;;3.00;0.90;;;36.60;71.10;;;;;;4995465;28;20407;-85
2022/07/01 10:14:15;;;;;;;5.93;1.10;;;36.30;67.60;;;;;;5024028;28;20464;-87
2022/07/01 10:16:49;;;;;;;1.97;1.13;;;35.90;65.20;;;;;;5033599;28;20449;-88
2022/07/01 10:19:23;;;;;;;3.33;1.00;;;37.60;70.90;;;;;;5030177;28;20496;-85
2022/07/01 10:21:52;;;;;;;1.93;0.97;;;36.50;63.40;;;;;;5029945;28;20454;-84
2022/07/01 10:24:18;;;;;;;2.80;0.90;;;35.40;58.70;;;;;;5029466;28;20539;-86
2022/07/01 10:26:45;;;;;;;2.83;0.80;;;35.80;60.60;;;;;;5034608;28;20438;-90
2022/07/01 10:29:36;;;;;;;4.90;0.70;;;36.90;64.70;;;;;;5024457;28;20851;-85
2022/07/01 10:32:08;;;;;;;1.53;0.70;;;38.30;68.00;;;;;;5010490;28;20454;-83
2022/07/01 10:34:41;;;;;;;2.00;0.90;;;39.20;67.40;;;;;;5008834;28;20460;-83
2022/07/01 10:37:10;;;;;;;2.80;1.10;;;39.00;63.70;;;;;;5009578;28;20433;-83
2022/07/01 10:39:54;;;;;;;2.27;0.90;;;39.80;63.80;;;;;;5008930;28;20984;-84
2022/07/01 10:42:54;;;;;;;2.03;0.80;;;40.00;61.90;;;;;;5010128;28;20445;-84
2022/07/01 10:45:20;;;;;;;3.23;0.67;;;39.90;59.20;;;;;;5008331;28;20548;-83
2022/07/01 10:47:46;;;;;;;1.87;0.60;;;40.00;58.70;;;;;;5007513;28;20445;-84
2022/07/01 10:50:16;;;;;;;1.60;0.60;;;40.40;58.30;;;;;;5008037;28;20240;-84
2022/07/01 10:53:04;;;;;;;2.80;1.03;;;40.60;57.10;;;;;;5011123;28;20709;-84
2022/07/01 10:55:41;;;;;;;2.50;1.03;;;38.70;50.40;;;;;;5010242;28;20465;-83
2022/07/01 10:58:07;;;;;;;1.70;0.90;;;37.00;46.80;;;;;;5008289;28;20433;-83
2022/07/01 11:00:34;;;;;;;2.40;1.20;;;35.80;45.20;;;;;;5013525;28;20972;-83
2022/07/01 11:03:11;;;;;;;2.67;1.10;;;34.40;41.10;;;;;;5014321;28;20187;-84
2022/07/01 11:05:37;;;;;;;3.57;1.10;;;35.00;45.20;;;;;;5005877;28;20476;-84
2022/07/01 11:08:06;;;;;;;3.47;1.00;;;34.80;44.90;;;;;;5007887;28;20500;-83
2022/07/01 11:10:32;;;;;;;2.70;0.80;;;33.70;41.50;;;;;;5009674;28;20433;-84
2022/07/01 11:12:58;;;;;;;3.03;1.03;;;33.70;42.90;;;;;;5008850;28;20509;-84
2022/07/01 11:15:25;;;;;;;2.80;1.10;;;34.50;47.00;;;;;;5010256;28;20194;-83
2022/07/01 11:17:51;;;;;;;2.80;0.60;;;35.60;50.20;;;;;;5011730;28;20442;-84
2022/07/01 11:20:17;;;;;;;1.70;0.97;;;36.60;53.30;;;;;;5007717;28;20439;-84
2022/07/01 11:22:42;;;;;;;2.13;0.80;;;37.10;52.90;;;;;;5009853;28;20549;-84
2022/07/01 11:25:13;;;;;;;5.97;0.90;;;37.00;51.90;;;;;;5005622;28;20675;-84
2022/07/01 11:27:40;;;;;;;2.93;0.90;;;37.50;52.60;;;;;;5006237;28;20270;-84
2022/07/01 11:30:13;;;;;;;2.23;1.07;;;37.30;50.80;;;;;;5006861;28;21043;-85
2022/07/01 11:32:42;;;;;;;1.90;0.70;;;37.60;51.70;;;;;;5006324;28;20440;-84
2022/07/01 11:40:58;;;;;;;2.43;0.90;;;37.40;47.80;;;;;;5008971;28;20441;-85
2022/07/01 11:43:26;;;;;;;1.50;0.87;;;37.50;47.50;;;;;;5008163;28;20530;-83
2022/07/01 11:45:53;;;;;;;1.10;0.60;;;37.20;45.20;;;;;;5007635;28;20458;-83
2022/07/01 11:48:37;;;;;;;3.40;1.10;;;37.20;50.10;;;;;;5010082;28;20453;-83
2022/07/01 11:51:14;;;;;;;2.73;0.80;;;36.60;43.00;;;;;;5010910;28;20937;-83
2022/07/01 11:53:52;;;;;;;2.47;0.90;;;35.70;40.30;;;;;;5004615;28;20796;-83
2022/07/01 11:56:31;;;;;;;1.90;0.73;;;34.60;37.70;;;;;;5005611;28;20525;-83
2022/07/01 11:58:57;;;;;;;2.83;1.00;;;33.80;36.40;;;;;;5010064;28;20430;-83
2022/07/01 12:01:25;;;;;;;2.47;1.30;;;33.00;34.60;;;;;;5007147;28;20445;-83
2022/07/01 12:03:50;;;;;;;1.63;0.80;;;32.40;34.20;;;;;;5010244;28;20461;-84
2022/07/01 12:06:18;;;;;;;4.83;1.20;;;32.60;37.50;;;;;;5012960;28;20458;-83
2022/07/01 12:08:48;;;;;;;2.70;1.20;;;32.50;38.50;;;;;;5013612;28;20180;-83
2022/07/01 12:11:15;;;;;;;2.97;1.03;;;32.00;36.60;;;;;;5004140;28;20451;-83
2022/07/01 12:13:40;;;;;;;1.73;0.80;;;31.60;35.10;;;;;;5006826;28;20460;-83
2022/07/01 12:16:08;;;;;;;3.00;0.93;;;31.90;37.50;;;;;;5011935;28;20425;-83
2022/07/01 12:18:33;;;;;;;3.50;0.70;;;31.40;37.00;;;;;;5009894;28;20171;-84
2022/07/01 12:21:01;;;;;;;2.07;0.90;;;30.80;35.30;;;;;;5011010;28;20492;-83
2022/07/01 12:23:26;;;;;;;4.47;0.90;;;30.40;35.90;;;;;;5010680;28;20233;-83
2022/07/01 12:25:52;;;;;;;2.10;0.77;;;30.40;36.50;;;;;;5011246;28;20465;-83
2022/07/01 12:28:31;;;;;;;2.77;1.00;;;31.80;42.10;;;;;;5010155;28;20187;-83
2022/07/01 12:31:08;;;;;;;2.80;1.00;;;32.70;45.70;;;;;;5008300;28;20258;-84
2022/07/01 12:33:38;;;;;;;3.60;1.07;;;33.50;48.10;;;;;;5025174;28;20460;-83
2022/07/01 12:36:06;;;;;;;1.90;0.90;;;34.00;49.50;;;;;;5010495;28;20540;-83
2022/07/01 12:38:32;;;;;;;2.70;0.63;;;33.30;46.80;;;;;;5011316;28;20433;-83
2022/07/01 12:40:59;;;;;;;2.73;0.80;;;33.20;45.60;;;;;;5024323;28;20437;-83
2022/07/01 12:43:28;;;;;;;2.20;1.13;;;33.60;46.30;;;;;;5010402;28;20529;-82
2022/07/01 12:45:54;;;;;;;2.90;1.47;;;33.70;59.10;;;;;;5013976;28;20469;-82
2022/07/01 12:48:19;;;;;;;5.27;0.90;;;33.70;46.20;;;;;;5006762;28;20977;-83
2022/07/01 12:50:46;;;;;;;4.10;0.80;;;33.80;46.90;;;;;;5013148;28;20229;-82
2022/07/01 12:53:17;;;;;;;1.87;0.80;;;33.90;47.60;;;;;;5013073;28;20295;-82
2022/07/01 12:55:48;;;;;;;4.60;0.80;;;33.10;42.90;;;;;;5014021;28;20492;-82
2022/07/01 12:58:23;;;;;;;1.83;0.70;;;32.70;41.90;;;;;;5014331;28;20441;-82
2022/07/01 13:00:51;;;;;;;1.87;0.80;;;32.80;42.40;;;;;;5027176;28;20449;-80
2022/07/01 13:03:27;;;;;;;5.33;0.90;;;33.00;42.80;;;;;;5030812;28;20488;-83
2022/07/01 13:05:54;;;;;;;3.23;0.93;;;32.70;42.40;;;;;;5012475;28;20465;-82
2022/07/01 13:08:21;;;;;;;1.13;0.60;;;32.70;43.00;;;;;;5018730;28;20440;-83
2022/07/01 13:10:47;;;;;;;3.00;0.80;;;32.60;43.40;;;;;;5015505;28;20454;-82